sensor_id;sensor_type;location;lat;lon;timestamp;pressure;altitude;pressure_sealevel;temperature;humidity
24422;BME280;12600;53.326;-6.298;2023-05-23T00:00:19;102626.34;;;14.25;56.40
24422;BME280;12600;53.326;-6.298;2023-05-23T00:03:10;102629.94;;;14.25;56.75
24422;BME280;12600;53.326;-6.298;2023-05-23T00:06:01;102636.50;;;14.30;56.46
24422;BME280;12600;53.326;-6.298;2023-05-23T00:08:51;102631.31;;;14.28;56.25
24422;BME280;12600;53.326;-6.298;2023-05-23T00:11:40;102623.59;;;14.30;56.25
24422;BME280;12600;53.326;-6.298;2023-05-23T00:14:33;102624.69;;;14.29;56.47
24422;BME280;12600;53.326;-6.298;2023-05-23T00:17:23;102634.06;;;14.23;56.82
24422;BME280;12600;53.326;-6.298;2023-05-23T00:20:13;102636.25;;;14.26;56.70
24422;BME280;12600;53.326;-6.298;2023-05-23T00:23:03;102642.56;;;14.26;56.72
24422;BME280;12600;53.326;-6.298;2023-05-23T00:25:53;102637.06;;;14.26;56.87
24422;BME280;12600;53.326;-6.298;2023-05-23T00:28:42;102644.50;;;14.26;56.95
24422;BME280;12600;53.326;-6.298;2023-05-23T00:31:33;102654.69;;;14.25;56.61
24422;BME280;12600;53.326;-6.298;2023-05-23T00:34:22;102644.22;;;14.27;56.95
24422;BME280;12600;53.326;-6.298;2023-05-23T00:37:12;102636.00;;;14.22;56.89
24422;BME280;12600;53.326;-6.298;2023-05-23T00:40:02;102631.34;;;14.18;57.55
24422;BME280;12600;53.326;-6.298;2023-05-23T00:42:51;102605.66;;;13.98;57.78
24422;BME280;12600;53.326;-6.298;2023-05-23T00:45:41;102632.53;;;14.07;58.28
24422;BME280;12600;53.326;-6.298;2023-05-23T00:48:32;102636.91;;;14.13;58.13
24422;BME280;12600;53.326;-6.298;2023-05-23T00:51:21;102627.28;;;14.10;57.84
24422;BME280;12600;53.326;-6.298;2023-05-23T00:54:11;102631.41;;;14.13;58.18
24422;BME280;12600;53.326;-6.298;2023-05-23T00:57:02;102637.44;;;14.10;58.48
24422;BME280;12600;53.326;-6.298;2023-05-23T00:59:51;102619.94;;;14.00;58.42
24422;BME280;12600;53.326;-6.298;2023-05-23T01:02:44;102599.66;;;13.86;58.82
24422;BME280;12600;53.326;-6.298;2023-05-23T01:05:35;102629.28;;;13.94;59.65
24422;BME280;12600;53.326;-6.298;2023-05-23T01:08:25;102626.31;;;13.91;59.66
24422;BME280;12600;53.326;-6.298;2023-05-23T01:11:24;102621.69;;;13.81;60.39
24422;BME280;12600;53.326;-6.298;2023-05-23T01:14:21;102625.56;;;13.80;60.51
24422;BME280;12600;53.326;-6.298;2023-05-23T01:17:17;102623.63;;;13.81;60.34
24422;BME280;12600;53.326;-6.298;2023-05-23T01:20:11;102624.47;;;13.76;60.64
24422;BME280;12600;53.326;-6.298;2023-05-23T01:24:02;102630.47;;;13.78;61.01
24422;BME280;12600;53.326;-6.298;2023-05-23T01:27:03;102626.16;;;13.67;61.32
24422;BME280;12600;53.326;-6.298;2023-05-23T01:29:59;102625.88;;;13.63;61.15
24422;BME280;12600;53.326;-6.298;2023-05-23T01:32:53;102635.22;;;13.67;61.09
24422;BME280;12600;53.326;-6.298;2023-05-23T01:35:44;102636.88;;;13.63;61.82
24422;BME280;12600;53.326;-6.298;2023-05-23T01:38:34;102631.66;;;13.62;61.49
24422;BME280;12600;53.326;-6.298;2023-05-23T01:41:24;102632.22;;;13.59;61.76
24422;BME280;12600;53.326;-6.298;2023-05-23T01:44:13;102639.13;;;13.56;62.26
24422;BME280;12600;53.326;-6.298;2023-05-23T01:47:07;102641.88;;;13.56;62.01
24422;BME280;12600;53.326;-6.298;2023-05-23T01:49:57;102641.31;;;13.54;62.25
24422;BME280;12600;53.326;-6.298;2023-05-23T01:52:48;102643.50;;;13.52;62.30
24422;BME280;12600;53.326;-6.298;2023-05-23T01:55:39;102641.63;;;13.48;62.81
24422;BME280;12600;53.326;-6.298;2023-05-23T01:58:29;102654.25;;;13.49;63.15
24422;BME280;12600;53.326;-6.298;2023-05-23T02:01:18;102648.75;;;13.43;63.14
24422;BME280;12600;53.326;-6.298;2023-05-23T02:04:10;102653.69;;;13.47;63.27
24422;BME280;12600;53.326;-6.298;2023-05-23T02:06:59;102629.00;;;13.36;63.08
24422;BME280;12600;53.326;-6.298;2023-05-23T02:09:49;102646.53;;;13.51;62.85
24422;BME280;12600;53.326;-6.298;2023-05-23T02:12:38;102638.03;;;13.47;62.51
24422;BME280;12600;53.326;-6.298;2023-05-23T02:15:28;102645.97;;;13.59;62.40
24422;BME280;12600;53.326;-6.298;2023-05-23T02:18:18;102643.47;;;13.62;62.46
24422;BME280;12600;53.326;-6.298;2023-05-23T02:21:11;102646.19;;;13.67;62.09
24422;BME280;12600;53.326;-6.298;2023-05-23T02:24:01;102644.28;;;13.68;62.04
24422;BME280;12600;53.326;-6.298;2023-05-23T02:26:50;102646.50;;;13.66;62.14
24422;BME280;12600;53.326;-6.298;2023-05-23T02:29:40;102642.91;;;13.65;61.93
24422;BME280;12600;53.326;-6.298;2023-05-23T02:32:29;102650.88;;;13.67;62.02
24422;BME280;12600;53.326;-6.298;2023-05-23T02:35:19;102651.16;;;13.65;62.29
24422;BME280;12600;53.326;-6.298;2023-05-23T02:38:10;102654.72;;;13.66;62.08
24422;BME280;12600;53.326;-6.298;2023-05-23T02:41:01;102653.63;;;13.62;62.08
24422;BME280;12600;53.326;-6.298;2023-05-23T02:43:51;102647.66;;;13.50;62.16
24422;BME280;12600;53.326;-6.298;2023-05-23T02:46:40;102648.75;;;13.49;62.18
24422;BME280;12600;53.326;-6.298;2023-05-23T02:49:30;102646.00;;;13.43;62.27
24422;BME280;12600;53.326;-6.298;2023-05-23T02:52:19;102658.63;;;13.44;62.47
24422;BME280;12600;53.326;-6.298;2023-05-23T02:55:10;102644.94;;;13.39;62.38
24422;BME280;12600;53.326;-6.298;2023-05-23T02:58:04;102657.53;;;13.46;62.29
24422;BME280;12600;53.326;-6.298;2023-05-23T03:00:54;102657.53;;;13.46;62.32
24422;BME280;12600;53.326;-6.298;2023-05-23T03:03:43;102648.47;;;13.45;62.22
24422;BME280;12600;53.326;-6.298;2023-05-23T03:06:32;102648.75;;;13.49;61.88
24422;BME280;12600;53.326;-6.298;2023-05-23T03:09:23;102652.31;;;13.49;61.77
24422;BME280;12600;53.326;-6.298;2023-05-23T03:12:14;102656.41;;;13.52;61.96
24422;BME280;12600;53.326;-6.298;2023-05-23T03:15:05;102659.47;;;13.50;61.51
24422;BME280;12600;53.326;-6.298;2023-05-23T03:17:57;102651.50;;;13.49;61.73
24422;BME280;12600;53.326;-6.298;2023-05-23T03:20:47;102639.69;;;13.43;62.10
24422;BME280;12600;53.326;-6.298;2023-05-23T03:23:36;102656.44;;;13.47;61.60
24422;BME280;12600;53.326;-6.298;2023-05-23T03:26:25;102646.31;;;13.42;61.57
24422;BME280;12600;53.326;-6.298;2023-05-23T03:29:17;102654.78;;;13.46;61.75
24422;BME280;12600;53.326;-6.298;2023-05-23T03:32:08;102651.75;;;13.47;62.07
24422;BME280;12600;53.326;-6.298;2023-05-23T03:34:57;102657.81;;;13.49;61.57
24422;BME280;12600;53.326;-6.298;2023-05-23T03:37:46;102659.75;;;13.49;61.91
24422;BME280;12600;53.326;-6.298;2023-05-23T03:40:36;102656.44;;;13.47;62.01
24422;BME280;12600;53.326;-6.298;2023-05-23T03:43:25;102646.84;;;13.44;62.10
24422;BME280;12600;53.326;-6.298;2023-05-23T03:46:16;102647.13;;;13.42;62.02
24422;BME280;12600;53.326;-6.298;2023-05-23T03:49:06;102641.63;;;13.37;61.92
24422;BME280;12600;53.326;-6.298;2023-05-23T03:51:56;102629.59;;;13.33;62.19
24422;BME280;12600;53.326;-6.298;2023-05-23T03:54:46;102638.34;;;13.40;62.14
24422;BME280;12600;53.326;-6.298;2023-05-23T03:57:36;102635.84;;;13.39;62.06
24422;BME280;12600;53.326;-6.298;2023-05-23T04:00:26;102646.31;;;13.37;62.27
24422;BME280;12600;53.326;-6.298;2023-05-23T04:03:18;102626.31;;;13.26;62.20
24422;BME280;12600;53.326;-6.298;2023-05-23T04:06:10;102636.72;;;13.29;62.28
24422;BME280;12600;53.326;-6.298;2023-05-23T04:09:03;102627.69;;;13.24;62.37
24422;BME280;12600;53.326;-6.298;2023-05-23T04:11:58;102637.56;;;13.25;62.51
24422;BME280;12600;53.326;-6.298;2023-05-23T04:14:48;102629.59;;;13.23;62.47
24422;BME280;12600;53.326;-6.298;2023-05-23T04:17:39;102624.09;;;13.18;62.82
24422;BME280;12600;53.326;-6.298;2023-05-23T04:20:30;102628.22;;;13.15;63.13
24422;BME280;12600;53.326;-6.298;2023-05-23T04:23:19;102625.22;;;13.17;63.07
24422;BME280;12600;53.326;-6.298;2023-05-23T04:26:12;102630.69;;;13.17;62.91
24422;BME280;12600;53.326;-6.298;2023-05-23T04:29:07;102635.66;;;13.20;63.18
24422;BME280;12600;53.326;-6.298;2023-05-23T04:31:59;102623.03;;;13.09;63.19
24422;BME280;12600;53.326;-6.298;2023-05-23T04:34:48;102632.91;;;13.10;63.49
24422;BME280;12600;53.326;-6.298;2023-05-23T04:37:40;102625.78;;;13.09;63.50
24422;BME280;12600;53.326;-6.298;2023-05-23T04:40:33;102629.88;;;13.16;63.50
24422;BME280;12600;53.326;-6.298;2023-05-23T04:43:42;102631.50;;;13.18;63.50
24422;BME280;12600;53.326;-6.298;2023-05-23T04:46:41;102611.22;;;13.08;63.17
24422;BME280;12600;53.326;-6.298;2023-05-23T04:49:37;102620.25;;;13.19;63.42
24422;BME280;12600;53.326;-6.298;2023-05-23T04:52:28;102626.84;;;13.13;62.95
24422;BME280;12600;53.326;-6.298;2023-05-23T04:55:21;102637.28;;;13.16;63.43
24422;BME280;12600;53.326;-6.298;2023-05-23T04:58:11;102634.25;;;13.12;63.80
24422;BME280;12600;53.326;-6.298;2023-05-23T05:01:01;102638.94;;;13.07;64.19
24422;BME280;12600;53.326;-6.298;2023-05-23T05:03:51;102629.06;;;13.06;63.99
24422;BME280;12600;53.326;-6.298;2023-05-23T05:06:40;102633.72;;;13.05;64.01
24422;BME280;12600;53.326;-6.298;2023-05-23T05:09:30;102648.00;;;13.07;64.15
24422;BME280;12600;53.326;-6.298;2023-05-23T05:12:20;102645.53;;;13.06;64.53
24422;BME280;12600;53.326;-6.298;2023-05-23T05:15:11;102648.25;;;13.11;64.41
24422;BME280;12600;53.326;-6.298;2023-05-23T05:18:03;102649.91;;;13.07;64.69
24422;BME280;12600;53.326;-6.298;2023-05-23T05:20:52;102661.72;;;13.12;64.18
24422;BME280;12600;53.326;-6.298;2023-05-23T05:23:43;102658.69;;;13.14;64.50
24422;BME280;12600;53.326;-6.298;2023-05-23T05:26:36;102646.06;;;13.13;64.10
24422;BME280;12600;53.326;-6.298;2023-05-23T05:29:27;102646.06;;;13.18;64.38
24422;BME280;12600;53.326;-6.298;2023-05-23T05:32:17;102642.50;;;13.18;64.40
24422;BME280;12600;53.326;-6.298;2023-05-23T05:35:07;102652.66;;;13.27;63.92
24422;BME280;12600;53.326;-6.298;2023-05-23T05:37:57;102648.56;;;13.25;64.28
24422;BME280;12600;53.326;-6.298;2023-05-23T05:40:46;102650.16;;;13.31;64.51
24422;BME280;12600;53.326;-6.298;2023-05-23T05:43:36;102649.91;;;13.32;64.53
24422;BME280;12600;53.326;-6.298;2023-05-23T05:46:27;102638.09;;;13.27;64.41
24422;BME280;12600;53.326;-6.298;2023-05-23T05:49:16;102643.03;;;13.35;64.63
24422;BME280;12600;53.326;-6.298;2023-05-23T05:52:07;102640.28;;;13.35;64.68
24422;BME280;12600;53.326;-6.298;2023-05-23T05:54:56;102640.00;;;13.36;64.65
24422;BME280;12600;53.326;-6.298;2023-05-23T05:57:46;102638.59;;;13.44;64.45
24422;BME280;12600;53.326;-6.298;2023-05-23T06:00:38;102626.25;;;13.36;64.58
24422;BME280;12600;53.326;-6.298;2023-05-23T06:03:32;102625.16;;;13.42;64.59
24422;BME280;12600;53.326;-6.298;2023-05-23T06:06:22;102581.00;;;13.19;64.48
24422;BME280;12600;53.326;-6.298;2023-05-23T06:09:13;102641.28;;;13.59;64.75
24422;BME280;12600;53.326;-6.298;2023-05-23T06:12:03;102630.84;;;13.61;64.09
24422;BME280;12600;53.326;-6.298;2023-05-23T06:14:52;102636.03;;;13.68;64.09
24422;BME280;12600;53.326;-6.298;2023-05-23T06:17:42;102631.06;;;13.70;64.13
24422;BME280;12600;53.326;-6.298;2023-05-23T06:20:34;102643.69;;;13.76;63.96
24422;BME280;12600;53.326;-6.298;2023-05-23T06:23:27;102633.81;;;13.75;64.20
24422;BME280;12600;53.326;-6.298;2023-05-23T06:26:16;102643.69;;;13.81;63.99
24422;BME280;12600;53.326;-6.298;2023-05-23T06:29:05;102641.69;;;13.87;64.02
24422;BME280;12600;53.326;-6.298;2023-05-23T06:31:55;102624.72;;;13.80;63.73
24422;BME280;12600;53.326;-6.298;2023-05-23T06:34:45;102654.91;;;13.90;63.62
24422;BME280;12600;53.326;-6.298;2023-05-23T06:37:35;102646.66;;;13.90;63.82
24422;BME280;12600;53.326;-6.298;2023-05-23T06:40:27;102661.69;;;14.03;63.67
24422;BME280;12600;53.326;-6.298;2023-05-23T06:43:16;102653.44;;;14.03;63.36
24422;BME280;12600;53.326;-6.298;2023-05-23T06:46:11;102647.72;;;13.94;63.73
24422;BME280;12600;53.326;-6.298;2023-05-23T06:49:00;102665.00;;;14.05;63.76
24422;BME280;12600;53.326;-6.298;2023-05-23T06:52:04;102660.59;;;14.04;63.58
24422;BME280;12600;53.326;-6.298;2023-05-23T06:54:54;102658.16;;;13.97;63.97
24422;BME280;12600;53.326;-6.298;2023-05-23T06:57:44;102657.59;;;14.00;64.07
24422;BME280;12600;53.326;-6.298;2023-05-23T07:00:39;102654.53;;;14.07;63.49
24422;BME280;12600;53.326;-6.298;2023-05-23T07:03:36;102655.59;;;14.11;63.69
24422;BME280;12600;53.326;-6.298;2023-05-23T07:06:29;102641.91;;;14.06;63.84
24422;BME280;12600;53.326;-6.298;2023-05-23T07:09:18;102666.03;;;14.14;63.61
24422;BME280;12600;53.326;-6.298;2023-05-23T07:12:09;102656.66;;;14.20;63.74
24422;BME280;12600;53.326;-6.298;2023-05-23T07:15:02;102618.78;;;14.12;63.80
24422;BME280;12600;53.326;-6.298;2023-05-23T07:17:52;102647.75;;;14.33;63.39
24422;BME280;12600;53.326;-6.298;2023-05-23T07:20:42;102652.09;;;14.44;63.62
24422;BME280;12600;53.326;-6.298;2023-05-23T07:23:35;102654.84;;;14.44;63.37
24422;BME280;12600;53.326;-6.298;2023-05-23T07:26:24;102659.75;;;14.52;63.33
24422;BME280;12600;53.326;-6.298;2023-05-23T07:29:17;102630.94;;;14.40;62.77
24422;BME280;12600;53.326;-6.298;2023-05-23T07:32:09;102639.88;;;14.61;62.85
24422;BME280;12600;53.326;-6.298;2023-05-23T07:34:58;102635.41;;;14.70;62.89
24422;BME280;12600;53.326;-6.298;2023-05-23T07:37:48;102637.25;;;14.79;63.04
24422;BME280;12600;53.326;-6.298;2023-05-23T07:40:37;102656.03;;;15.01;62.74
24422;BME280;12600;53.326;-6.298;2023-05-23T07:43:28;102631.78;;;15.03;62.68
24422;BME280;12600;53.326;-6.298;2023-05-23T07:46:19;102644.28;;;15.20;62.16
24422;BME280;12600;53.326;-6.298;2023-05-23T07:49:09;102643.63;;;15.28;62.03
24422;BME280;12600;53.326;-6.298;2023-05-23T07:51:59;102634.22;;;15.34;62.10
24422;BME280;12600;53.326;-6.298;2023-05-23T07:54:52;102641.91;;;15.61;62.06
24422;BME280;12600;53.326;-6.298;2023-05-23T07:57:42;102656.19;;;16.06;62.69
24422;BME280;12600;53.326;-6.298;2023-05-23T08:00:32;102671.25;;;16.32;59.29
24422;BME280;12600;53.326;-6.298;2023-05-23T08:03:31;102675.78;;;16.42;57.43
24422;BME280;12600;53.326;-6.298;2023-05-23T08:06:28;102670.03;;;16.76;57.41
24422;BME280;12600;53.326;-6.298;2023-05-23T08:09:21;102675.63;;;17.03;56.04
24422;BME280;12600;53.326;-6.298;2023-05-23T08:12:15;102671.38;;;17.39;56.07
24422;BME280;12600;53.326;-6.298;2023-05-23T08:15:08;102670.34;;;17.62;54.51
24422;BME280;12600;53.326;-6.298;2023-05-23T08:18:03;102664.13;;;17.98;54.77
24422;BME280;12600;53.326;-6.298;2023-05-23T08:20:54;102663.91;;;17.94;52.56
24422;BME280;12600;53.326;-6.298;2023-05-23T08:23:44;102671.28;;;17.99;51.87
24422;BME280;12600;53.326;-6.298;2023-05-23T08:26:34;102663.97;;;18.03;52.15
24422;BME280;12600;53.326;-6.298;2023-05-23T08:29:26;102661.75;;;18.05;51.65
24422;BME280;12600;53.326;-6.298;2023-05-23T08:32:16;102660.19;;;18.35;52.08
24422;BME280;12600;53.326;-6.298;2023-05-23T08:35:06;102646.31;;;18.49;50.79
24422;BME280;12600;53.326;-6.298;2023-05-23T08:37:58;102661.84;;;18.36;47.85
24422;BME280;12600;53.326;-6.298;2023-05-23T08:40:50;102660.84;;;18.54;48.72
24422;BME280;12600;53.326;-6.298;2023-05-23T08:43:41;102662.06;;;18.62;48.07
24422;BME280;12600;53.326;-6.298;2023-05-23T08:46:42;102655.66;;;18.75;47.96
24422;BME280;12600;53.326;-6.298;2023-05-23T08:49:39;102655.13;;;18.95;47.23
24422;BME280;12600;53.326;-6.298;2023-05-23T08:52:29;102662.00;;;19.38;47.64
24422;BME280;12600;53.326;-6.298;2023-05-23T08:55:24;102660.34;;;19.68;46.56
24422;BME280;12600;53.326;-6.298;2023-05-23T08:58:15;102665.41;;;19.66;44.84
24422;BME280;12600;53.326;-6.298;2023-05-23T09:01:12;102671.16;;;19.95;45.66
24422;BME280;12600;53.326;-6.298;2023-05-23T09:04:05;102658.97;;;20.14;44.68
24422;BME280;12600;53.326;-6.298;2023-05-23T09:07:02;102664.84;;;20.38;43.71
24422;BME280;12600;53.326;-6.298;2023-05-23T09:09:52;102652.75;;;20.34;42.97
24422;BME280;12600;53.326;-6.298;2023-05-23T09:12:44;102644.59;;;20.29;42.81
24422;BME280;12600;53.326;-6.298;2023-05-23T09:15:34;102653.25;;;20.27;42.36
24422;BME280;12600;53.326;-6.298;2023-05-23T09:18:25;102649.31;;;20.20;41.58
24422;BME280;12600;53.326;-6.298;2023-05-23T09:21:15;102644.28;;;20.22;41.95
24422;BME280;12600;53.326;-6.298;2023-05-23T09:24:33;102634.13;;;20.34;40.39
24422;BME280;12600;53.326;-6.298;2023-05-23T09:27:27;102636.41;;;20.76;40.90
24422;BME280;12600;53.326;-6.298;2023-05-23T09:30:19;102635.75;;;21.26;40.23
24422;BME280;12600;53.326;-6.298;2023-05-23T09:33:09;102633.22;;;21.50;39.61
24422;BME280;12600;53.326;-6.298;2023-05-23T09:36:03;102624.94;;;21.62;37.98
24422;BME280;12600;53.326;-6.298;2023-05-23T09:38:53;102638.84;;;21.92;38.15
24422;BME280;12600;53.326;-6.298;2023-05-23T09:41:47;102625.97;;;22.08;37.40
24422;BME280;12600;53.326;-6.298;2023-05-23T09:44:40;102627.19;;;21.98;37.02
24422;BME280;12600;53.326;-6.298;2023-05-23T09:47:31;102622.69;;;22.27;37.81
24422;BME280;12600;53.326;-6.298;2023-05-23T09:50:22;102618.94;;;22.44;37.26
24422;BME280;12600;53.326;-6.298;2023-05-23T09:53:11;102617.13;;;22.60;36.90
24422;BME280;12600;53.326;-6.298;2023-05-23T09:56:02;102612.19;;;22.45;35.46
24422;BME280;12600;53.326;-6.298;2023-05-23T09:58:53;102607.59;;;22.49;35.29
24422;BME280;12600;53.326;-6.298;2023-05-23T10:01:44;102620.09;;;22.43;36.07
24422;BME280;12600;53.326;-6.298;2023-05-23T10:04:38;102616.22;;;22.56;36.20
24422;BME280;12600;53.326;-6.298;2023-05-23T10:07:28;102619.63;;;22.41;36.06
24422;BME280;12600;53.326;-6.298;2023-05-23T10:10:18;102619.97;;;22.39;35.33
24422;BME280;12600;53.326;-6.298;2023-05-23T10:13:08;102618.28;;;22.47;35.90
24422;BME280;12600;53.326;-6.298;2023-05-23T10:16:01;102623.50;;;22.60;36.33
24422;BME280;12600;53.326;-6.298;2023-05-23T10:18:57;102619.41;;;22.46;36.99
24422;BME280;12600;53.326;-6.298;2023-05-23T10:21:57;102628.06;;;22.11;36.14
24422;BME280;12600;53.326;-6.298;2023-05-23T10:24:47;102618.94;;;22.44;36.70
24422;BME280;12600;53.326;-6.298;2023-05-23T10:27:38;102614.66;;;22.79;36.13
24422;BME280;12600;53.326;-6.298;2023-05-23T10:30:28;102622.44;;;22.53;35.21
24422;BME280;12600;53.326;-6.298;2023-05-23T10:33:18;102619.00;;;22.68;35.80
24422;BME280;12600;53.326;-6.298;2023-05-23T10:36:13;102595.97;;;22.92;34.94
24422;BME280;12600;53.326;-6.298;2023-05-23T10:39:12;102590.06;;;22.94;34.16
24422;BME280;12600;53.326;-6.298;2023-05-23T10:42:12;102612.97;;;23.11;34.32
24422;BME280;12600;53.326;-6.298;2023-05-23T10:45:17;102611.53;;;22.93;33.96
24422;BME280;12600;53.326;-6.298;2023-05-23T10:48:19;102609.97;;;23.29;34.36
24422;BME280;12600;53.326;-6.298;2023-05-23T10:51:12;102603.56;;;23.28;34.76
24422;BME280;12600;53.326;-6.298;2023-05-23T10:54:11;102592.16;;;23.33;34.53
24422;BME280;12600;53.326;-6.298;2023-05-23T10:57:04;102599.50;;;23.13;35.02
24422;BME280;12600;53.326;-6.298;2023-05-23T10:59:55;102600.53;;;23.45;35.18
24422;BME280;12600;53.326;-6.298;2023-05-23T11:02:54;102604.13;;;23.46;34.15
24422;BME280;12600;53.326;-6.298;2023-05-23T11:05:52;102600.25;;;23.87;34.32
24422;BME280;12600;53.326;-6.298;2023-05-23T11:08:41;102601.81;;;24.13;33.31
24422;BME280;12600;53.326;-6.298;2023-05-23T11:11:54;102598.88;;;23.81;33.76
24422;BME280;12600;53.326;-6.298;2023-05-23T11:14:53;102602.75;;;24.05;33.66
24422;BME280;12600;53.326;-6.298;2023-05-23T11:17:51;102592.63;;;24.12;33.59
24422;BME280;12600;53.326;-6.298;2023-05-23T11:20:40;102586.38;;;24.03;33.67
24422;BME280;12600;53.326;-6.298;2023-05-23T11:23:41;102586.13;;;24.36;33.40
24422;BME280;12600;53.326;-6.298;2023-05-23T11:26:31;102587.78;;;24.53;33.38
24422;BME280;12600;53.326;-6.298;2023-05-23T11:29:22;102591.97;;;24.31;32.60
24422;BME280;12600;53.326;-6.298;2023-05-23T11:32:13;102593.72;;;24.79;33.12
24422;BME280;12600;53.326;-6.298;2023-05-23T11:35:07;102580.59;;;24.68;32.66
24422;BME280;12600;53.326;-6.298;2023-05-23T11:37:57;102586.28;;;24.55;32.70
24422;BME280;12600;53.326;-6.298;2023-05-23T11:40:47;102583.78;;;24.82;32.57
24422;BME280;12600;53.326;-6.298;2023-05-23T11:43:36;102572.78;;;24.89;32.24
24422;BME280;12600;53.326;-6.298;2023-05-23T11:46:27;102576.13;;;24.95;32.38
24422;BME280;12600;53.326;-6.298;2023-05-23T11:49:16;102580.28;;;25.17;32.01
24422;BME280;12600;53.326;-6.298;2023-05-23T11:52:06;102575.09;;;25.34;31.67
24422;BME280;12600;53.326;-6.298;2023-05-23T11:54:55;102574.84;;;25.39;31.93
24422;BME280;12600;53.326;-6.298;2023-05-23T11:57:50;102570.59;;;25.46;32.05
24422;BME280;12600;53.326;-6.298;2023-05-23T12:00:43;102562.75;;;25.71;30.62
24422;BME280;12600;53.326;-6.298;2023-05-23T12:03:44;102577.91;;;25.70;30.70
24422;BME280;12600;53.326;-6.298;2023-05-23T12:06:34;102572.63;;;25.49;30.21
24422;BME280;12600;53.326;-6.298;2023-05-23T12:09:23;102564.56;;;24.96;31.00
24422;BME280;12600;53.326;-6.298;2023-05-23T12:12:13;102560.41;;;24.74;31.80
24422;BME280;12600;53.326;-6.298;2023-05-23T12:15:04;102563.78;;;25.12;31.85
24422;BME280;12600;53.326;-6.298;2023-05-23T12:17:55;102559.19;;;25.19;31.74
24422;BME280;12600;53.326;-6.298;2023-05-23T12:20:48;102559.19;;;25.19;31.53
24422;BME280;12600;53.326;-6.298;2023-05-23T12:23:38;102566.47;;;25.24;31.20
24422;BME280;12600;53.326;-6.298;2023-05-23T12:26:29;102556.00;;;25.72;31.18
24422;BME280;12600;53.326;-6.298;2023-05-23T12:29:20;102547.47;;;25.84;31.31
24422;BME280;12600;53.326;-6.298;2023-05-23T12:32:10;102546.06;;;25.93;31.17
24422;BME280;12600;53.326;-6.298;2023-05-23T12:34:59;102541.69;;;26.15;30.95
24422;BME280;12600;53.326;-6.298;2023-05-23T12:37:50;102549.13;;;26.27;30.73
24422;BME280;12600;53.326;-6.298;2023-05-23T12:40:41;102531.31;;;25.97;30.60
24422;BME280;12600;53.326;-6.298;2023-05-23T12:43:30;102538.28;;;26.06;30.26
24422;BME280;12600;53.326;-6.298;2023-05-23T12:46:21;102521.34;;;25.80;29.90
24422;BME280;12600;53.326;-6.298;2023-05-23T12:49:10;102536.69;;;25.86;30.48
24422;BME280;12600;53.326;-6.298;2023-05-23T12:52:03;102528.44;;;25.93;30.16
24422;BME280;12600;53.326;-6.298;2023-05-23T12:54:56;102527.75;;;26.19;30.64
24422;BME280;12600;53.326;-6.298;2023-05-23T12:57:46;102503.53;;;25.88;30.06
24422;BME280;12600;53.326;-6.298;2023-05-23T13:00:35;102527.75;;;26.19;30.24
24422;BME280;12600;53.326;-6.298;2023-05-23T13:03:25;102529.63;;;26.34;30.67
24422;BME280;12600;53.326;-6.298;2023-05-23T13:06:14;102536.97;;;26.62;30.20
24422;BME280;12600;53.326;-6.298;2023-05-23T13:09:04;102538.59;;;26.40;30.19
24422;BME280;12600;53.326;-6.298;2023-05-23T13:11:55;102534.97;;;26.62;30.19
24422;BME280;12600;53.326;-6.298;2023-05-23T13:14:45;102527.59;;;27.00;29.97
24422;BME280;12600;53.326;-6.298;2023-05-23T13:17:35;102520.25;;;26.92;29.81
24422;BME280;12600;53.326;-6.298;2023-05-23T13:20:24;102523.25;;;26.80;30.06
24422;BME280;12600;53.326;-6.298;2023-05-23T13:23:17;102531.47;;;26.69;30.44
24422;BME280;12600;53.326;-6.298;2023-05-23T13:26:06;102526.66;;;26.92;30.13
24422;BME280;12600;53.326;-6.298;2023-05-23T13:28:57;102529.03;;;26.90;29.75
24422;BME280;12600;53.326;-6.298;2023-05-23T13:31:46;102530.66;;;26.91;29.28
24422;BME280;12600;53.326;-6.298;2023-05-23T13:34:36;102513.00;;;26.91;29.62
24422;BME280;12600;53.326;-6.298;2023-05-23T13:37:26;102519.81;;;26.90;29.98
24422;BME280;12600;53.326;-6.298;2023-05-23T13:40:17;102518.88;;;26.82;30.34
24422;BME280;12600;53.326;-6.298;2023-05-23T13:43:09;102516.63;;;26.91;30.36
24422;BME280;12600;53.326;-6.298;2023-05-23T13:46:00;102521.94;;;26.51;30.51
24422;BME280;12600;53.326;-6.298;2023-05-23T13:48:50;102529.56;;;26.31;30.40
24422;BME280;12600;53.326;-6.298;2023-05-23T13:51:39;102525.31;;;26.17;31.16
24422;BME280;12600;53.326;-6.298;2023-05-23T13:54:30;102530.34;;;26.08;31.58
24422;BME280;12600;53.326;-6.298;2023-05-23T13:57:19;102518.91;;;25.98;32.07
24422;BME280;12600;53.326;-6.298;2023-05-23T14:00:10;102516.41;;;26.12;31.92
24422;BME280;12600;53.326;-6.298;2023-05-23T14:03:02;102534.81;;;26.13;31.96
24422;BME280;12600;53.326;-6.298;2023-05-23T14:05:51;102535.34;;;25.80;32.00
24422;BME280;12600;53.326;-6.298;2023-05-23T14:08:40;102522.81;;;25.74;32.32
24422;BME280;12600;53.326;-6.298;2023-05-23T14:11:30;102526.63;;;25.65;31.89
24422;BME280;12600;53.326;-6.298;2023-05-23T14:14:19;102514.28;;;25.86;31.43
24422;BME280;12600;53.326;-6.298;2023-05-23T14:17:13;102508.47;;;25.75;31.64
24422;BME280;12600;53.326;-6.298;2023-05-23T14:20:07;102505.81;;;26.02;31.72
24422;BME280;12600;53.326;-6.298;2023-05-23T14:22:56;102496.72;;;25.89;31.00
24422;BME280;12600;53.326;-6.298;2023-05-23T14:25:46;102496.50;;;25.98;31.51
24422;BME280;12600;53.326;-6.298;2023-05-23T14:28:35;102487.16;;;26.09;31.09
24422;BME280;12600;53.326;-6.298;2023-05-23T14:31:24;102497.97;;;26.53;31.22
24422;BME280;12600;53.326;-6.298;2023-05-23T14:34:14;102486.31;;;26.74;30.49
24422;BME280;12600;53.326;-6.298;2023-05-23T14:37:05;102498.97;;;26.64;30.11
24422;BME280;12600;53.326;-6.298;2023-05-23T14:39:54;102489.53;;;26.76;29.92
24422;BME280;12600;53.326;-6.298;2023-05-23T14:42:44;102490.78;;;26.78;29.69
24422;BME280;12600;53.326;-6.298;2023-05-23T14:45:33;102489.25;;;27.08;29.50